sensor_id;sensor_type;location;lat;lon;timestamp;P1;durP1;ratioP1;P2;durP2;ratioP2
65463;SDS011;52063;45.110;9.870;2024-02-28T00:01:02;3.60;;;1.10;;
65463;SDS011;52063;45.110;9.870;2024-02-28T00:03:27;1.33;;;1.13;;
65463;SDS011;52063;45.110;9.870;2024-02-28T00:05:53;1.85;;;0.90;;
65463;SDS011;52063;45.110;9.870;2024-02-28T00:08:18;1.87;;;1.10;;
65463;SDS011;52063;45.110;9.870;2024-02-28T00:10:45;2.97;;;1.00;;
65463;SDS011;52063;45.110;9.870;2024-02-28T00:13:11;1.30;;;1.00;;
65463;SDS011;52063;45.110;9.870;2024-02-28T00:15:36;1.27;;;1.00;;
65463;SDS011;52063;45.110;9.870;2024-02-28T00:18:02;1.47;;;0.90;;
65463;SDS011;52063;45.110;9.870;2024-02-28T00:20:28;1.92;;;1.02;;
65463;SDS011;52063;45.110;9.870;2024-02-28T00:22:55;1.45;;;0.90;;
65463;SDS011;52063;45.110;9.870;2024-02-28T00:25:20;2.73;;;0.90;;
65463;SDS011;52063;45.110;9.870;2024-02-28T00:27:46;1.30;;;1.10;;
65463;SDS011;52063;45.110;9.870;2024-02-28T00:30:11;1.42;;;1.00;;
65463;SDS011;52063;45.110;9.870;2024-02-28T00:32:37;1.23;;;1.10;;
65463;SDS011;52063;45.110;9.870;2024-02-28T00:35:03;2.03;;;0.97;;
65463;SDS011;52063;45.110;9.870;2024-02-28T00:37:29;1.00;;;0.80;;
65463;SDS011;52063;45.110;9.870;2024-02-28T00:39:54;1.17;;;0.70;;
65463;SDS011;52063;45.110;9.870;2024-02-28T00:42:21;1.40;;;1.00;;
65463;SDS011;52063;45.110;9.870;2024-02-28T00:44:47;2.20;;;0.90;;
65463;SDS011;52063;45.110;9.870;2024-02-28T00:47:12;0.90;;;0.77;;
65463;SDS011;52063;45.110;9.870;2024-02-28T00:49:37;2.60;;;1.00;;
65463;SDS011;52063;45.110;9.870;2024-02-28T00:52:03;0.90;;;0.80;;
65463;SDS011;52063;45.110;9.870;2024-02-28T00:54:29;2.08;;;1.00;;
65463;SDS011;52063;45.110;9.870;2024-02-28T00:56:54;1.43;;;0.80;;
65463;SDS011;52063;45.110;9.870;2024-02-28T00:59:20;1.70;;;1.00;;
65463;SDS011;52063;45.110;9.870;2024-02-28T01:01:45;1.58;;;0.80;;
65463;SDS011;52063;45.110;9.870;2024-02-28T01:04:11;1.10;;;1.00;;
65463;SDS011;52063;45.110;9.870;2024-02-28T01:06:36;1.00;;;0.80;;
65463;SDS011;52063;45.110;9.870;2024-02-28T01:09:03;1.55;;;0.93;;
65463;SDS011;52063;45.110;9.870;2024-02-28T01:11:28;1.40;;;0.97;;
65463;SDS011;52063;45.110;9.870;2024-02-28T01:13:54;1.20;;;0.93;;
65463;SDS011;52063;45.110;9.870;2024-02-28T01:16:19;1.63;;;1.00;;
65463;SDS011;52063;45.110;9.870;2024-02-28T01:18:45;2.47;;;0.87;;
65463;SDS011;52063;45.110;9.870;2024-02-28T01:21:10;1.40;;;1.00;;
65463;SDS011;52063;45.110;9.870;2024-02-28T01:23:36;1.38;;;0.80;;
65463;SDS011;52063;45.110;9.870;2024-02-28T01:26:01;1.20;;;0.90;;
65463;SDS011;52063;45.110;9.870;2024-02-28T01:28:31;2.25;;;0.80;;
65463;SDS011;52063;45.110;9.870;2024-02-28T01:30:56;1.73;;;0.93;;
65463;SDS011;52063;45.110;9.870;2024-02-28T01:33:22;2.60;;;1.05;;
65463;SDS011;52063;45.110;9.870;2024-02-28T01:35:47;2.30;;;0.90;;
65463;SDS011;52063;45.110;9.870;2024-02-28T01:38:13;1.10;;;1.00;;
65463;SDS011;52063;45.110;9.870;2024-02-28T01:40:38;1.00;;;0.90;;
65463;SDS011;52063;45.110;9.870;2024-02-28T01:43:07;1.15;;;0.93;;
65463;SDS011;52063;45.110;9.870;2024-02-28T01:45:33;1.33;;;0.77;;
65463;SDS011;52063;45.110;9.870;2024-02-28T01:47:58;1.30;;;1.10;;
65463;SDS011;52063;45.110;9.870;2024-02-28T01:50:24;1.20;;;0.83;;
65463;SDS011;52063;45.110;9.870;2024-02-28T01:52:49;0.90;;;0.80;;
65463;SDS011;52063;45.110;9.870;2024-02-28T01:55:15;1.10;;;0.80;;
65463;SDS011;52063;45.110;9.870;2024-02-28T01:57:40;1.53;;;0.93;;
65463;SDS011;52063;45.110;9.870;2024-02-28T02:00:06;1.33;;;0.85;;
65463;SDS011;52063;45.110;9.870;2024-02-28T02:02:33;0.97;;;0.80;;
65463;SDS011;52063;45.110;9.870;2024-02-28T02:04:59;2.40;;;0.90;;
65463;SDS011;52063;45.110;9.870;2024-02-28T02:07:25;1.43;;;0.80;;
65463;SDS011;52063;45.110;9.870;2024-02-28T02:09:51;1.08;;;0.90;;
65463;SDS011;52063;45.110;9.870;2024-02-28T02:12:17;1.98;;;0.90;;
65463;SDS011;52063;45.110;9.870;2024-02-28T02:14:47;1.03;;;0.90;;
65463;SDS011;52063;45.110;9.870;2024-02-28T02:17:15;1.45;;;0.88;;
65463;SDS011;52063;45.110;9.870;2024-02-28T02:19:41;1.30;;;0.90;;
65463;SDS011;52063;45.110;9.870;2024-02-28T02:22:08;1.20;;;0.70;;
65463;SDS011;52063;45.110;9.870;2024-02-28T02:24:34;1.20;;;0.80;;
65463;SDS011;52063;45.110;9.870;2024-02-28T02:26:59;3.63;;;0.93;;
65463;SDS011;52063;45.110;9.870;2024-02-28T02:29:25;2.08;;;0.80;;
65463;SDS011;52063;45.110;9.870;2024-02-28T02:31:52;0.95;;;0.68;;
65463;SDS011;52063;45.110;9.870;2024-02-28T02:34:18;2.23;;;0.87;;
65463;SDS011;52063;45.110;9.870;2024-02-28T02:36:43;1.83;;;0.80;;
65463;SDS011;52063;45.110;9.870;2024-02-28T02:39:09;2.20;;;0.80;;
65463;SDS011;52063;45.110;9.870;2024-02-28T02:41:34;1.03;;;0.80;;
65463;SDS011;52063;45.110;9.870;2024-02-28T02:44:00;2.17;;;0.80;;
65463;SDS011;52063;45.110;9.870;2024-02-28T02:46:25;1.10;;;0.70;;
65463;SDS011;52063;45.110;9.870;2024-02-28T02:48:51;0.90;;;0.80;;
65463;SDS011;52063;45.110;9.870;2024-02-28T02:51:20;0.80;;;0.65;;
65463;SDS011;52063;45.110;9.870;2024-02-28T02:53:46;1.30;;;0.90;;
65463;SDS011;52063;45.110;9.870;2024-02-28T02:56:11;1.10;;;0.97;;
65463;SDS011;52063;45.110;9.870;2024-02-28T02:58:37;1.03;;;0.70;;
65463;SDS011;52063;45.110;9.870;2024-02-28T03:01:02;1.27;;;0.70;;
65463;SDS011;52063;45.110;9.870;2024-02-28T03:03:28;1.13;;;0.93;;
65463;SDS011;52063;45.110;9.870;2024-02-28T03:05:53;1.10;;;0.77;;
65463;SDS011;52063;45.110;9.870;2024-02-28T03:08:19;1.73;;;0.80;;
65463;SDS011;52063;45.110;9.870;2024-02-28T03:10:44;0.80;;;0.80;;
65463;SDS011;52063;45.110;9.870;2024-02-28T03:13:10;1.70;;;0.63;;
65463;SDS011;52063;45.110;9.870;2024-02-28T03:15:35;1.02;;;0.70;;
65463;SDS011;52063;45.110;9.870;2024-02-28T03:18:01;1.10;;;0.73;;
65463;SDS011;52063;45.110;9.870;2024-02-28T03:20:27;1.05;;;0.80;;
65463;SDS011;52063;45.110;9.870;2024-02-28T03:22:52;1.00;;;0.60;;
65463;SDS011;52063;45.110;9.870;2024-02-28T03:25:18;0.90;;;0.70;;
65463;SDS011;52063;45.110;9.870;2024-02-28T03:27:43;0.90;;;0.80;;
65463;SDS011;52063;45.110;9.870;2024-02-28T03:30:08;1.17;;;0.80;;
65463;SDS011;52063;45.110;9.870;2024-02-28T03:32:34;1.23;;;0.67;;
65463;SDS011;52063;45.110;9.870;2024-02-28T03:35:00;0.93;;;0.70;;
65463;SDS011;52063;45.110;9.870;2024-02-28T03:37:25;1.47;;;1.10;;
65463;SDS011;52063;45.110;9.870;2024-02-28T03:39:51;1.60;;;0.90;;
65463;SDS011;52063;45.110;9.870;2024-02-28T03:42:17;0.93;;;0.80;;
65463;SDS011;52063;45.110;9.870;2024-02-28T03:44:42;0.83;;;0.73;;
65463;SDS011;52063;45.110;9.870;2024-02-28T03:47:08;1.20;;;0.60;;
65463;SDS011;52063;45.110;9.870;2024-02-28T03:49:34;1.23;;;0.80;;
65463;SDS011;52063;45.110;9.870;2024-02-28T03:51:59;2.47;;;0.80;;
65463;SDS011;52063;45.110;9.870;2024-02-28T03:54:26;1.05;;;0.70;;
65463;SDS011;52063;45.110;9.870;2024-02-28T03:56:51;0.80;;;0.60;;
65463;SDS011;52063;45.110;9.870;2024-02-28T03:59:17;1.00;;;0.70;;
65463;SDS011;52063;45.110;9.870;2024-02-28T04:01:43;1.17;;;0.83;;
65463;SDS011;52063;45.110;9.870;2024-02-28T04:04:08;1.13;;;0.90;;
65463;SDS011;52063;45.110;9.870;2024-02-28T04:06:34;1.00;;;0.63;;
65463;SDS011;52063;45.110;9.870;2024-02-28T04:08:59;1.00;;;0.60;;
65463;SDS011;52063;45.110;9.870;2024-02-28T04:11:25;0.88;;;0.80;;
65463;SDS011;52063;45.110;9.870;2024-02-28T04:13:51;1.43;;;0.73;;
65463;SDS011;52063;45.110;9.870;2024-02-28T04:16:16;0.87;;;0.70;;
65463;SDS011;52063;45.110;9.870;2024-02-28T04:18:41;1.00;;;0.80;;
65463;SDS011;52063;45.110;9.870;2024-02-28T04:21:08;1.10;;;0.70;;
65463;SDS011;52063;45.110;9.870;2024-02-28T04:23:33;1.93;;;0.70;;
65463;SDS011;52063;45.110;9.870;2024-02-28T04:25:59;0.83;;;0.73;;
65463;SDS011;52063;45.110;9.870;2024-02-28T04:28:24;1.10;;;0.85;;
65463;SDS011;52063;45.110;9.870;2024-02-28T04:30:50;1.17;;;0.60;;
65463;SDS011;52063;45.110;9.870;2024-02-28T04:33:15;0.73;;;0.60;;
65463;SDS011;52063;45.110;9.870;2024-02-28T04:35:41;1.00;;;0.90;;
65463;SDS011;52063;45.110;9.870;2024-02-28T04:38:06;1.00;;;0.80;;
65463;SDS011;52063;45.110;9.870;2024-02-28T04:40:32;1.20;;;0.82;;
65463;SDS011;52063;45.110;9.870;2024-02-28T04:42:57;0.70;;;0.57;;
65463;SDS011;52063;45.110;9.870;2024-02-28T04:45:23;1.10;;;0.80;;
65463;SDS011;52063;45.110;9.870;2024-02-28T04:47:49;1.00;;;0.70;;
65463;SDS011;52063;45.110;9.870;2024-02-28T04:50:16;0.90;;;0.60;;
65463;SDS011;52063;45.110;9.870;2024-02-28T04:52:42;0.80;;;0.60;;
65463;SDS011;52063;45.110;9.870;2024-02-28T04:55:08;1.07;;;0.60;;
65463;SDS011;52063;45.110;9.870;2024-02-28T04:57:33;1.10;;;0.80;;
65463;SDS011;52063;45.110;9.870;2024-02-28T04:59:59;0.63;;;0.60;;
65463;SDS011;52063;45.110;9.870;2024-02-28T05:02:24;0.70;;;0.70;;
65463;SDS011;52063;45.110;9.870;2024-02-28T05:04:51;1.23;;;0.70;;
65463;SDS011;52063;45.110;9.870;2024-02-28T05:07:16;1.00;;;0.88;;
65463;SDS011;52063;45.110;9.870;2024-02-28T05:09:42;0.80;;;0.80;;
65463;SDS011;52063;45.110;9.870;2024-02-28T05:12:08;2.28;;;0.90;;
65463;SDS011;52063;45.110;9.870;2024-02-28T05:14:33;1.47;;;0.73;;
65463;SDS011;52063;45.110;9.870;2024-02-28T05:16:59;0.88;;;0.70;;
65463;SDS011;52063;45.110;9.870;2024-02-28T05:19:24;0.90;;;0.70;;
65463;SDS011;52063;45.110;9.870;2024-02-28T05:21:50;0.80;;;0.60;;
65463;SDS011;52063;45.110;9.870;2024-02-28T05:24:15;3.03;;;0.73;;
65463;SDS011;52063;45.110;9.870;2024-02-28T05:26:41;4.77;;;0.70;;
65463;SDS011;52063;45.110;9.870;2024-02-28T05:29:06;0.80;;;0.60;;
65463;SDS011;52063;45.110;9.870;2024-02-28T05:31:33;1.00;;;0.60;;
65463;SDS011;52063;45.110;9.870;2024-02-28T05:33:59;2.17;;;0.70;;
65463;SDS011;52063;45.110;9.870;2024-02-28T05:36:26;1.10;;;0.50;;
65463;SDS011;52063;45.110;9.870;2024-02-28T05:38:54;0.88;;;0.60;;
65463;SDS011;52063;45.110;9.870;2024-02-28T05:41:21;0.77;;;0.68;;
65463;SDS011;52063;45.110;9.870;2024-02-28T05:43:47;1.63;;;0.50;;
65463;SDS011;52063;45.110;9.870;2024-02-28T05:46:13;0.90;;;0.60;;
65463;SDS011;52063;45.110;9.870;2024-02-28T05:48:42;0.98;;;0.50;;
65463;SDS011;52063;45.110;9.870;2024-02-28T05:51:08;1.08;;;0.60;;
65463;SDS011;52063;45.110;9.870;2024-02-28T05:53:34;1.13;;;0.60;;
65463;SDS011;52063;45.110;9.870;2024-02-28T05:56:03;3.13;;;0.73;;
65463;SDS011;52063;45.110;9.870;2024-02-28T05:58:42;1.30;;;0.60;;
65463;SDS011;52063;45.110;9.870;2024-02-28T06:01:09;0.80;;;0.55;;
65463;SDS011;52063;45.110;9.870;2024-02-28T06:03:38;0.80;;;0.60;;
65463;SDS011;52063;45.110;9.870;2024-02-28T06:06:03;0.82;;;0.52;;
65463;SDS011;52063;45.110;9.870;2024-02-28T06:08:39;0.73;;;0.40;;
65463;SDS011;52063;45.110;9.870;2024-02-28T06:11:05;0.75;;;0.50;;
65463;SDS011;52063;45.110;9.870;2024-02-28T06:13:31;2.23;;;0.70;;
65463;SDS011;52063;45.110;9.870;2024-02-28T06:15:57;0.70;;;0.55;;
65463;SDS011;52063;45.110;9.870;2024-02-28T06:18:23;1.10;;;0.70;;
65463;SDS011;52063;45.110;9.870;2024-02-28T06:20:52;2.95;;;0.70;;
65463;SDS011;52063;45.110;9.870;2024-02-28T06:23:18;1.00;;;0.60;;
65463;SDS011;52063;45.110;9.870;2024-02-28T06:25:44;1.20;;;0.80;;
65463;SDS011;52063;45.110;9.870;2024-02-28T06:28:09;0.87;;;0.50;;
65463;SDS011;52063;45.110;9.870;2024-02-28T06:30:35;0.88;;;0.50;;
65463;SDS011;52063;45.110;9.870;2024-02-28T06:33:00;0.70;;;0.50;;
65463;SDS011;52063;45.110;9.870;2024-02-28T06:35:26;1.10;;;0.68;;
65463;SDS011;52063;45.110;9.870;2024-02-28T06:37:52;0.95;;;0.63;;
65463;SDS011;52063;45.110;9.870;2024-02-28T06:40:17;2.57;;;0.60;;
65463;SDS011;52063;45.110;9.870;2024-02-28T06:42:43;0.70;;;0.50;;
65463;SDS011;52063;45.110;9.870;2024-02-28T06:45:09;1.02;;;0.50;;
65463;SDS011;52063;45.110;9.870;2024-02-28T06:47:34;0.90;;;0.53;;
65463;SDS011;52063;45.110;9.870;2024-02-28T06:50:02;1.02;;;0.60;;
65463;SDS011;52063;45.110;9.870;2024-02-28T06:52:30;0.80;;;0.50;;
65463;SDS011;52063;45.110;9.870;2024-02-28T06:54:56;0.90;;;0.60;;
65463;SDS011;52063;45.110;9.870;2024-02-28T06:57:22;0.73;;;0.60;;
65463;SDS011;52063;45.110;9.870;2024-02-28T06:59:47;0.83;;;0.60;;
65463;SDS011;52063;45.110;9.870;2024-02-28T07:02:13;0.70;;;0.60;;
65463;SDS011;52063;45.110;9.870;2024-02-28T07:04:39;1.00;;;0.40;;
65463;SDS011;52063;45.110;9.870;2024-02-28T07:07:06;0.80;;;0.57;;
65463;SDS011;52063;45.110;9.870;2024-02-28T07:09:31;1.52;;;0.60;;
65463;SDS011;52063;45.110;9.870;2024-02-28T07:11:58;1.02;;;0.70;;
65463;SDS011;52063;45.110;9.870;2024-02-28T07:14:24;1.10;;;0.70;;
65463;SDS011;52063;45.110;9.870;2024-02-28T07:16:49;1.52;;;0.57;;
65463;SDS011;52063;45.110;9.870;2024-02-28T07:19:17;1.10;;;0.70;;
65463;SDS011;52063;45.110;9.870;2024-02-28T07:21:43;0.80;;;0.67;;
65463;SDS011;52063;45.110;9.870;2024-02-28T07:24:08;1.00;;;0.70;;
65463;SDS011;52063;45.110;9.870;2024-02-28T07:26:34;0.83;;;0.70;;
65463;SDS011;52063;45.110;9.870;2024-02-28T07:28:59;1.47;;;0.50;;
65463;SDS011;52063;45.110;9.870;2024-02-28T07:31:25;0.90;;;0.60;;
65463;SDS011;52063;45.110;9.870;2024-02-28T07:33:50;0.83;;;0.50;;
65463;SDS011;52063;45.110;9.870;2024-02-28T07:36:16;0.80;;;0.50;;
65463;SDS011;52063;45.110;9.870;2024-02-28T07:38:41;1.08;;;0.70;;
65463;SDS011;52063;45.110;9.870;2024-02-28T07:41:07;0.80;;;0.60;;
65463;SDS011;52063;45.110;9.870;2024-02-28T07:43:33;2.10;;;0.60;;
65463;SDS011;52063;45.110;9.870;2024-02-28T07:46:08;2.47;;;0.65;;
65463;SDS011;52063;45.110;9.870;2024-02-28T07:48:36;0.80;;;0.65;;
65463;SDS011;52063;45.110;9.870;2024-02-28T07:51:04;1.00;;;0.60;;
65463;SDS011;52063;45.110;9.870;2024-02-28T07:53:29;1.48;;;0.80;;
65463;SDS011;52063;45.110;9.870;2024-02-28T07:55:55;0.95;;;0.60;;
65463;SDS011;52063;45.110;9.870;2024-02-28T07:58:21;3.43;;;0.57;;
65463;SDS011;52063;45.110;9.870;2024-02-28T08:00:46;3.03;;;0.90;;
65463;SDS011;52063;45.110;9.870;2024-02-28T08:03:12;4.75;;;1.40;;
65463;SDS011;52063;45.110;9.870;2024-02-28T08:05:37;3.70;;;1.10;;
65463;SDS011;52063;45.110;9.870;2024-02-28T08:08:08;4.22;;;1.40;;
65463;SDS011;52063;45.110;9.870;2024-02-28T08:10:33;8.27;;;2.00;;
65463;SDS011;52063;45.110;9.870;2024-02-28T08:13:00;4.22;;;1.50;;
65463;SDS011;52063;45.110;9.870;2024-02-28T08:15:26;7.55;;;2.58;;
65463;SDS011;52063;45.110;9.870;2024-02-28T08:17:52;5.87;;;3.90;;
65463;SDS011;52063;45.110;9.870;2024-02-28T08:20:17;6.33;;;3.57;;
65463;SDS011;52063;45.110;9.870;2024-02-28T08:22:43;6.18;;;3.35;;
65463;SDS011;52063;45.110;9.870;2024-02-28T08:25:08;5.70;;;3.13;;
65463;SDS011;52063;45.110;9.870;2024-02-28T08:27:36;5.30;;;2.63;;
65463;SDS011;52063;45.110;9.870;2024-02-28T08:30:03;9.93;;;2.50;;
65463;SDS011;52063;45.110;9.870;2024-02-28T08:32:28;6.78;;;2.50;;
65463;SDS011;52063;45.110;9.870;2024-02-28T08:34:54;3.03;;;2.20;;
65463;SDS011;52063;45.110;9.870;2024-02-28T08:37:20;2.35;;;2.15;;
65463;SDS011;52063;45.110;9.870;2024-02-28T08:39:45;4.00;;;1.80;;
65463;SDS011;52063;45.110;9.870;2024-02-28T08:42:11;8.38;;;2.00;;
65463;SDS011;52063;45.110;9.870;2024-02-28T08:44:37;3.67;;;2.07;;
65463;SDS011;52063;45.110;9.870;2024-02-28T08:47:03;3.25;;;1.70;;
65463;SDS011;52063;45.110;9.870;2024-02-28T08:49:29;4.07;;;1.60;;
65463;SDS011;52063;45.110;9.870;2024-02-28T08:51:56;5.30;;;1.65;;
65463;SDS011;52063;45.110;9.870;2024-02-28T08:54:21;2.97;;;1.40;;
65463;SDS011;52063;45.110;9.870;2024-02-28T08:56:47;2.43;;;1.67;;
65463;SDS011;52063;45.110;9.870;2024-02-28T08:59:12;2.60;;;1.52;;
65463;SDS011;52063;45.110;9.870;2024-02-28T09:01:38;2.60;;;1.47;;
65463;SDS011;52063;45.110;9.870;2024-02-28T09:04:03;2.00;;;1.50;;
65463;SDS011;52063;45.110;9.870;2024-02-28T09:06:28;2.95;;;1.40;;
65463;SDS011;52063;45.110;9.870;2024-02-28T09:08:54;3.83;;;1.33;;
65463;SDS011;52063;45.110;9.870;2024-02-28T09:11:19;1.80;;;1.57;;
65463;SDS011;52063;45.110;9.870;2024-02-28T09:13:45;4.27;;;1.70;;
65463;SDS011;52063;45.110;9.870;2024-02-28T09:16:10;5.00;;;1.67;;
65463;SDS011;52063;45.110;9.870;2024-02-28T09:18:36;2.67;;;1.50;;
65463;SDS011;52063;45.110;9.870;2024-02-28T09:21:02;2.75;;;1.75;;
65463;SDS011;52063;45.110;9.870;2024-02-28T09:23:27;6.37;;;1.10;;
65463;SDS011;52063;45.110;9.870;2024-02-28T09:25:53;4.53;;;1.57;;
65463;SDS011;52063;45.110;9.870;2024-02-28T09:28:18;1.83;;;1.33;;
65463;SDS011;52063;45.110;9.870;2024-02-28T09:30:44;3.10;;;1.57;;
65463;SDS011;52063;45.110;9.870;2024-02-28T09:33:12;2.13;;;1.30;;
65463;SDS011;52063;45.110;9.870;2024-02-28T09:35:38;3.53;;;1.40;;
65463;SDS011;52063;45.110;9.870;2024-02-28T09:38:04;2.37;;;1.40;;
65463;SDS011;52063;45.110;9.870;2024-02-28T09:40:30;2.60;;;1.30;;
65463;SDS011;52063;45.110;9.870;2024-02-28T09:43:02;2.72;;;1.30;;
65463;SDS011;52063;45.110;9.870;2024-02-28T09:45:31;2.23;;;1.40;;
65463;SDS011;52063;45.110;9.870;2024-02-28T09:47:58;2.00;;;1.45;;
65463;SDS011;52063;45.110;9.870;2024-02-28T09:50:25;1.60;;;1.33;;
65463;SDS011;52063;45.110;9.870;2024-02-28T09:52:51;1.60;;;1.15;;
65463;SDS011;52063;45.110;9.870;2024-02-28T09:55:17;3.80;;;1.10;;
65463;SDS011;52063;45.110;9.870;2024-02-28T09:57:42;2.80;;;1.10;;
65463;SDS011;52063;45.110;9.870;2024-02-28T10:00:09;1.70;;;1.20;;
65463;SDS011;52063;45.110;9.870;2024-02-28T10:02:34;2.80;;;1.30;;
65463;SDS011;52063;45.110;9.870;2024-02-28T10:05:02;1.92;;;1.30;;
65463;SDS011;52063;45.110;9.870;2024-02-28T10:07:30;2.33;;;1.35;;
65463;SDS011;52063;45.110;9.870;2024-02-28T10:09:56;1.63;;;1.53;;
65463;SDS011;52063;45.110;9.870;2024-02-28T10:12:21;3.00;;;1.40;;
65463;SDS011;52063;45.110;9.870;2024-02-28T10:14:50;2.33;;;1.30;;
65463;SDS011;52063;45.110;9.870;2024-02-28T10:17:16;1.42;;;1.00;;
65463;SDS011;52063;45.110;9.870;2024-02-28T10:19:41;1.80;;;1.40;;
65463;SDS011;52063;45.110;9.870;2024-02-28T10:22:07;2.43;;;1.10;;
65463;SDS011;52063;45.110;9.870;2024-02-28T10:24:33;1.83;;;1.20;;
65463;SDS011;52063;45.110;9.870;2024-02-28T10:27:00;2.83;;;1.40;;
65463;SDS011;52063;45.110;9.870;2024-02-28T10:29:26;2.03;;;1.30;;
65463;SDS011;52063;45.110;9.870;2024-02-28T10:31:58;2.00;;;1.40;;
65463;SDS011;52063;45.110;9.870;2024-02-28T10:34:24;1.50;;;1.30;;
65463;SDS011;52063;45.110;9.870;2024-02-28T10:36:50;3.43;;;1.30;;
65463;SDS011;52063;45.110;9.870;2024-02-28T10:39:26;1.60;;;1.50;;
65463;SDS011;52063;45.110;9.870;2024-02-28T10:41:52;1.42;;;1.33;;
65463;SDS011;52063;45.110;9.870;2024-02-28T10:44:18;2.65;;;1.27;;
65463;SDS011;52063;45.110;9.870;2024-02-28T10:46:48;1.07;;;0.90;;
65463;SDS011;52063;45.110;9.870;2024-02-28T10:49:14;2.78;;;1.00;;
65463;SDS011;52063;45.110;9.870;2024-02-28T10:51:39;1.27;;;1.00;;
65463;SDS011;52063;45.110;9.870;2024-02-28T10:54:10;1.48;;;1.20;;
65463;SDS011;52063;45.110;9.870;2024-02-28T10:56:41;2.15;;;1.35;;
65463;SDS011;52063;45.110;9.870;2024-02-28T10:59:08;2.13;;;1.10;;
65463;SDS011;52063;45.110;9.870;2024-02-28T11:01:35;1.65;;;1.10;;
65463;SDS011;52063;45.110;9.870;2024-02-28T11:04:01;1.63;;;1.00;;
65463;SDS011;52063;45.110;9.870;2024-02-28T11:06:28;1.58;;;0.98;;
65463;SDS011;52063;45.110;9.870;2024-02-28T11:08:53;1.20;;;1.00;;
65463;SDS011;52063;45.110;9.870;2024-02-28T11:11:19;3.60;;;1.40;;
65463;SDS011;52063;45.110;9.870;2024-02-28T11:13:54;1.20;;;1.10;;
65463;SDS011;52063;45.110;9.870;2024-02-28T11:16:31;1.88;;;1.25;;
65463;SDS011;52063;45.110;9.870;2024-02-28T11:18:57;1.60;;;1.45;;
65463;SDS011;52063;45.110;9.870;2024-02-28T11:21:24;1.48;;;1.20;;
65463;SDS011;52063;45.110;9.870;2024-02-28T11:23:51;1.30;;;1.03;;
65463;SDS011;52063;45.110;9.870;2024-02-28T11:26:17;4.88;;;1.30;;
65463;SDS011;52063;45.110;9.870;2024-02-28T11:28:43;1.90;;;1.20;;
65463;SDS011;52063;45.110;9.870;2024-02-28T11:31:08;1.57;;;1.40;;
65463;SDS011;52063;45.110;9.870;2024-02-28T11:33:34;1.67;;;1.48;;
65463;SDS011;52063;45.110;9.870;2024-02-28T11:36:01;1.97;;;1.47;;
65463;SDS011;52063;45.110;9.870;2024-02-28T11:38:28;2.20;;;1.40;;
65463;SDS011;52063;45.110;9.870;2024-02-28T11:40:54;1.83;;;1.73;;
65463;SDS011;52063;45.110;9.870;2024-02-28T11:43:20;1.60;;;1.50;;
65463;SDS011;52063;45.110;9.870;2024-02-28T11:45:46;2.47;;;1.30;;
65463;SDS011;52063;45.110;9.870;2024-02-28T11:48:13;1.77;;;1.38;;
65463;SDS011;52063;45.110;9.870;2024-02-28T11:50:39;1.60;;;1.50;;
65463;SDS011;52063;45.110;9.870;2024-02-28T11:53:05;3.77;;;1.63;;
65463;SDS011;52063;45.110;9.870;2024-02-28T11:55:31;2.50;;;1.60;;
65463;SDS011;52063;45.110;9.870;2024-02-28T11:57:57;1.63;;;1.40;;
65463;SDS011;52063;45.110;9.870;2024-02-28T12:00:22;1.80;;;1.60;;
65463;SDS011;52063;45.110;9.870;2024-02-28T12:02:48;2.00;;;1.50;;
65463;SDS011;52063;45.110;9.870;2024-02-28T12:05:14;2.23;;;1.70;;
65463;SDS011;52063;45.110;9.870;2024-02-28T12:07:39;1.80;;;1.40;;
65463;SDS011;52063;45.110;9.870;2024-02-28T12:10:06;1.55;;;1.20;;
65463;SDS011;52063;45.110;9.870;2024-02-28T12:12:33;2.60;;;1.60;;
65463;SDS011;52063;45.110;9.870;2024-02-28T12:14:59;2.78;;;1.40;;
65463;SDS011;52063;45.110;9.870;2024-02-28T12:17:26;1.85;;;1.50;;
65463;SDS011;52063;45.110;9.870;2024-02-28T12:19:52;1.50;;;1.40;;
65463;SDS011;52063;45.110;9.870;2024-02-28T12:22:18;1.57;;;1.40;;
65463;SDS011;52063;45.110;9.870;2024-02-28T12:24:43;3.50;;;1.40;;
65463;SDS011;52063;45.110;9.870;2024-02-28T12:27:09;1.73;;;1.50;;
65463;SDS011;52063;45.110;9.870;2024-02-28T12:29:34;2.00;;;1.43;;
65463;SDS011;52063;45.110;9.870;2024-02-28T12:32:00;1.40;;;1.30;;
65463;SDS011;52063;45.110;9.870;2024-02-28T12:34:26;2.93;;;1.67;;
65463;SDS011;52063;45.110;9.870;2024-02-28T12:36:51;2.30;;;1.42;;
65463;SDS011;52063;45.110;9.870;2024-02-28T12:39:17;2.83;;;1.47;;
65463;SDS011;52063;45.110;9.870;2024-02-28T12:41:42;2.20;;;1.45;;
65463;SDS011;52063;45.110;9.870;2024-02-28T12:44:08;2.67;;;1.60;;
65463;SDS011;52063;45.110;9.870;2024-02-28T12:46:34;2.25;;;1.15;;
65463;SDS011;52063;45.110;9.870;2024-02-28T12:49:00;2.50;;;1.43;;
65463;SDS011;52063;45.110;9.870;2024-02-28T12:51:42;2.70;;;2.03;;
65463;SDS011;52063;45.110;9.870;2024-02-28T12:54:09;1.75;;;1.60;;
65463;SDS011;52063;45.110;9.870;2024-02-28T12:56:38;1.90;;;1.60;;
65463;SDS011;52063;45.110;9.870;2024-02-28T12:59:04;3.15;;;1.70;;
65463;SDS011;52063;45.110;9.870;2024-02-28T13:01:32;2.05;;;1.67;;
65463;SDS011;52063;45.110;9.870;2024-02-28T13:03:58;1.88;;;1.60;;
65463;SDS011;52063;45.110;9.870;2024-02-28T13:06:23;1.77;;;1.53;;
65463;SDS011;52063;45.110;9.870;2024-02-28T13:08:49;2.85;;;1.70;;
65463;SDS011;52063;45.110;9.870;2024-02-28T13:11:21;2.17;;;1.93;;
65463;SDS011;52063;45.110;9.870;2024-02-28T13:13:48;3.55;;;1.70;;
65463;SDS011;52063;45.110;9.870;2024-02-28T13:16:17;1.55;;;1.42;;
65463;SDS011;52063;45.110;9.870;2024-02-28T13:18:43;2.78;;;1.30;;
65463;SDS011;52063;45.110;9.870;2024-02-28T13:21:12;2.20;;;1.98;;
65463;SDS011;52063;45.110;9.870;2024-02-28T13:23:37;1.87;;;1.70;;
65463;SDS011;52063;45.110;9.870;2024-02-28T13:26:06;2.53;;;1.70;;
65463;SDS011;52063;45.110;9.870;2024-02-28T13:28:32;2.35;;;1.50;;
65463;SDS011;52063;45.110;9.870;2024-02-28T13:30:59;3.10;;;1.50;;
65463;SDS011;52063;45.110;9.870;2024-02-28T13:33:25;2.40;;;1.85;;
65463;SDS011;52063;45.110;9.870;2024-02-28T13:35:51;1.75;;;1.48;;
65463;SDS011;52063;45.110;9.870;2024-02-28T13:38:18;1.63;;;1.38;;
65463;SDS011;52063;45.110;9.870;2024-02-28T13:40:44;2.10;;;1.80;;
65463;SDS011;52063;45.110;9.870;2024-02-28T13:43:11;2.07;;;1.70;;
65463;SDS011;52063;45.110;9.870;2024-02-28T13:45:39;2.55;;;1.80;;
65463;SDS011;52063;45.110;9.870;2024-02-28T13:48:15;3.20;;;1.58;;
65463;SDS011;52063;45.110;9.870;2024-02-28T13:50:42;1.98;;;1.88;;
65463;SDS011;52063;45.110;9.870;2024-02-28T13:53:08;2.55;;;1.60;;
65463;SDS011;52063;45.110;9.870;2024-02-28T13:55:34;1.73;;;1.57;;
65463;SDS011;52063;45.110;9.870;2024-02-28T13:57:59;3.50;;;1.60;;
65463;SDS011;52063;45.110;9.870;2024-02-28T14:00:25;2.40;;;1.70;;
65463;SDS011;52063;45.110;9.870;2024-02-28T14:02:50;2.38;;;1.80;;
65463;SDS011;52063;45.110;9.870;2024-02-28T14:05:15;2.30;;;1.40;;
65463;SDS011;52063;45.110;9.870;2024-02-28T14:07:41;3.23;;;1.60;;
65463;SDS011;52063;45.110;9.870;2024-02-28T14:10:07;2.10;;;1.80;;
65463;SDS011;52063;45.110;9.870;2024-02-28T14:12:32;2.60;;;1.70;;
65463;SDS011;52063;45.110;9.870;2024-02-28T14:14:58;2.13;;;1.70;;
65463;SDS011;52063;45.110;9.870;2024-02-28T14:17:23;3.22;;;1.45;;
65463;SDS011;52063;45.110;9.870;2024-02-28T14:19:49;2.93;;;1.80;;
65463;SDS011;52063;45.110;9.870;2024-02-28T14:22:15;1.85;;;1.35;;
65463;SDS011;52063;45.110;9.870;2024-02-28T14:24:40;2.90;;;1.70;;
65463;SDS011;52063;45.110;9.870;2024-02-28T14:27:05;1.53;;;1.43;;
65463;SDS011;52063;45.110;9.870;2024-02-28T14:29:31;2.13;;;1.60;;
65463;SDS011;52063;45.110;9.870;2024-02-28T14:31:57;2.00;;;1.50;;
65463;SDS011;52063;45.110;9.870;2024-02-28T14:34:22;1.80;;;1.70;;
65463;SDS011;52063;45.110;9.870;2024-02-28T14:36:48;3.00;;;1.67;;
65463;SDS011;52063;45.110;9.870;2024-02-28T14:39:14;2.08;;;1.70;;
65463;SDS011;52063;45.110;9.870;2024-02-28T14:41:43;2.05;;;1.40;;